createdAt,value
2023-02-24T00:00:53.515Z,5.16
2023-02-24T00:03:26.907Z,5.20
2023-02-24T00:06:03.993Z,5.26
2023-02-24T00:08:37.751Z,5.28
2023-02-24T00:11:17.352Z,5.30
2023-02-24T00:13:51.311Z,5.32
2023-02-24T00:16:27.562Z,5.32
2023-02-24T00:19:02.264Z,5.33
2023-02-24T00:21:36.507Z,5.33
2023-02-24T00:24:11.233Z,5.38
2023-02-24T00:26:45.973Z,5.43
2023-02-24T00:29:19.858Z,5.43
2023-02-24T00:31:59.872Z,5.41
2023-02-24T00:34:35.960Z,5.40
2023-02-24T00:37:09.888Z,5.40
2023-02-24T00:39:45.190Z,5.43
2023-02-24T00:42:19.194Z,5.47
2023-02-24T00:44:54.362Z,5.53
2023-02-24T00:47:28.495Z,5.59
2023-02-24T00:50:02.459Z,5.62
2023-02-24T00:52:37.248Z,5.65
2023-02-24T00:55:15.872Z,5.66
2023-02-24T00:57:51.024Z,5.69
2023-02-24T01:00:26.531Z,5.73
2023-02-24T01:03:00.743Z,5.77
2023-02-24T01:05:37.049Z,5.77
2023-02-24T01:08:10.702Z,5.75
2023-02-24T01:11:04.828Z,5.75
2023-02-24T01:13:39.546Z,5.72
2023-02-24T01:16:14.984Z,5.69
2023-02-24T01:18:49.574Z,5.66
2023-02-24T01:21:24.281Z,5.62
2023-02-24T01:23:59.162Z,5.62
2023-02-24T01:26:32.828Z,5.65
2023-02-24T01:29:10.427Z,5.69
2023-02-24T01:31:47.274Z,5.74
2023-02-24T01:34:22.679Z,5.79
2023-02-24T01:36:56.793Z,5.82
2023-02-24T01:39:30.668Z,5.87
2023-02-24T01:42:06.463Z,5.90
2023-02-24T01:45:16.582Z,5.91
2023-02-24T01:47:51.090Z,5.91
2023-02-24T01:50:26.868Z,5.91
2023-02-24T01:53:04.533Z,5.91
2023-02-24T01:55:43.781Z,5.91
2023-02-24T01:58:26.075Z,5.93
2023-02-24T02:01:09.095Z,5.97
2023-02-24T02:03:46.359Z,5.96
2023-02-24T02:06:19.989Z,5.91
2023-02-24T02:08:54.248Z,5.85
2023-02-24T02:11:28.645Z,5.83
2023-02-24T02:14:02.537Z,5.81
2023-02-24T02:16:57.325Z,5.82
2023-02-24T02:20:16.575Z,5.86
2023-02-24T02:23:28.176Z,5.93
2023-02-24T02:26:33.980Z,5.97
2023-02-24T02:29:32.175Z,5.98
2023-02-24T02:32:38.646Z,5.97
2023-02-24T02:35:19.604Z,5.97
2023-02-24T02:37:57.898Z,6.01
2023-02-24T02:40:41.992Z,6.04
2023-02-24T02:43:25.052Z,6.09
2023-02-24T02:46:04.043Z,6.16
2023-02-24T02:48:41.665Z,6.23
2023-02-24T02:51:20.559Z,6.29
2023-02-24T02:54:03.573Z,6.34
2023-02-24T02:56:42.663Z,6.38
2023-02-24T02:59:23.633Z,6.40
2023-02-24T03:02:11.962Z,6.44
2023-02-24T03:04:51.958Z,6.49
2023-02-24T03:07:31.950Z,6.55
2023-02-24T03:10:29.061Z,6.62
2023-02-24T03:13:23.877Z,6.68
2023-02-24T03:16:00.366Z,6.71
2023-02-24T03:18:37.631Z,6.74
2023-02-24T03:21:15.240Z,6.77
2023-02-24T03:23:53.217Z,6.80
2023-02-24T03:26:32.074Z,6.86
2023-02-24T03:29:18.274Z,6.93
2023-02-24T03:31:55.500Z,6.99
2023-02-24T03:34:41.024Z,7.04
2023-02-24T03:37:15.745Z,7.08
2023-02-24T03:39:53.590Z,7.09
2023-02-24T03:42:33.007Z,7.10
2023-02-24T03:45:10.234Z,7.09
2023-02-24T03:47:45.885Z,7.11
2023-02-24T03:50:22.272Z,7.15
2023-02-24T03:53:10.024Z,7.19
2023-02-24T03:56:01.018Z,7.22
2023-02-24T03:58:53.383Z,7.21
2023-02-24T04:01:36.813Z,7.21
2023-02-24T04:04:16.760Z,7.20
2023-02-24T04:07:10.134Z,7.20
2023-02-24T04:09:53.275Z,7.21
2023-02-24T04:12:34.400Z,7.20
2023-02-24T04:15:17.089Z,7.19
2023-02-24T04:17:55.806Z,7.20
2023-02-24T04:20:33.013Z,7.20
2023-02-24T04:23:12.658Z,7.22
2023-02-24T04:25:50.131Z,7.22
2023-02-24T04:28:25.799Z,7.21
2023-02-24T04:31:07.298Z,7.20
2023-02-24T04:33:42.232Z,7.16
2023-02-24T04:36:16.979Z,7.13
2023-02-24T04:38:50.802Z,7.13
2023-02-24T04:41:24.980Z,7.15
2023-02-24T04:43:58.974Z,7.17
2023-02-24T04:46:33.225Z,7.17
2023-02-24T04:49:07.247Z,7.16
2023-02-24T04:51:43.532Z,7.16
2023-02-24T04:54:19.202Z,7.18
2023-02-24T04:56:54.385Z,7.22
2023-02-24T04:59:28.759Z,7.28
2023-02-24T05:02:03.706Z,7.33
2023-02-24T05:04:39.828Z,7.36
2023-02-24T05:07:16.318Z,7.35
2023-02-24T05:09:50.352Z,7.36
2023-02-24T05:12:24.234Z,7.38
2023-02-24T05:15:01.530Z,7.39
2023-02-24T05:17:35.716Z,7.41
2023-02-24T05:20:30.108Z,7.41
2023-02-24T05:23:03.607Z,7.42
2023-02-24T05:25:38.096Z,7.43
2023-02-24T05:28:11.899Z,7.46
2023-02-24T05:30:45.378Z,7.52
2023-02-24T05:33:21.863Z,7.55
2023-02-24T05:35:56.611Z,7.57
2023-02-24T05:38:30.944Z,7.59
2023-02-24T05:41:15.424Z,7.62
2023-02-24T05:43:53.693Z,7.62
2023-02-24T05:46:29.662Z,7.63
2023-02-24T05:49:09.460Z,7.64
2023-02-24T05:51:55.328Z,7.66
2023-02-24T05:54:30.827Z,7.71
2023-02-24T05:57:06.641Z,7.75
2023-02-24T05:59:40.614Z,7.78
2023-02-24T06:02:16.263Z,7.81
2023-02-24T06:04:54.351Z,7.85
2023-02-24T06:07:29.977Z,7.92
2023-02-24T06:10:10.184Z,7.95
2023-02-24T06:12:44.077Z,7.96
2023-02-24T06:15:18.196Z,7.97
2023-02-24T06:17:51.888Z,7.97
2023-02-24T06:20:27.326Z,7.99
2023-02-24T06:23:02.448Z,8.00
2023-02-24T06:25:38.877Z,8.03
2023-02-24T06:28:12.471Z,8.08
2023-02-24T06:30:46.233Z,8.13
2023-02-24T06:33:20.270Z,8.16
2023-02-24T06:35:54.034Z,8.17
2023-02-24T06:38:28.102Z,8.19
2023-02-24T06:41:04.507Z,8.21
2023-02-24T06:43:39.453Z,8.24
2023-02-24T06:46:15.692Z,8.27
2023-02-24T06:48:49.273Z,8.32
2023-02-24T06:51:23.533Z,8.37
2023-02-24T06:53:57.074Z,8.37
2023-02-24T06:56:32.541Z,8.38
2023-02-24T06:59:07.279Z,8.39
2023-02-24T07:01:45.589Z,8.39
2023-02-24T07:04:21.299Z,8.44
2023-02-24T07:06:57.444Z,8.47
2023-02-24T07:09:31.477Z,8.49
2023-02-24T07:12:08.539Z,8.50
2023-02-24T07:14:42.706Z,8.54
2023-02-24T07:17:19.374Z,8.55
2023-02-24T07:19:54.913Z,8.58
2023-02-24T07:22:28.657Z,8.62
2023-02-24T07:25:02.642Z,8.65
2023-02-24T07:27:37.149Z,8.69
2023-02-24T07:30:13.166Z,8.72
2023-02-24T07:32:48.886Z,8.74
2023-02-24T07:35:22.345Z,8.75
2023-02-24T07:38:02.471Z,8.78
2023-02-24T07:40:36.766Z,8.81
2023-02-24T07:43:11.380Z,8.85
2023-02-24T07:45:44.818Z,8.92
2023-02-24T07:48:18.445Z,8.98
2023-02-24T07:50:53.377Z,9.04
2023-02-24T07:53:28.209Z,9.08
2023-02-24T07:56:03.812Z,9.08
2023-02-24T07:58:37.442Z,9.07
2023-02-24T08:01:23.466Z,9.08
2023-02-24T08:04:01.614Z,9.08
2023-02-24T08:06:40.223Z,9.09
2023-02-24T08:09:18.865Z,9.09
2023-02-24T08:11:54.510Z,9.08
2023-02-24T08:14:33.157Z,9.06
2023-02-24T08:17:07.251Z,9.03
2023-02-24T08:19:41.204Z,9.04
2023-02-24T08:22:24.543Z,9.07
2023-02-24T08:25:01.006Z,9.10
2023-02-24T08:27:39.678Z,9.13
2023-02-24T08:30:24.046Z,9.12
2023-02-24T08:32:58.873Z,9.11
2023-02-24T08:35:36.584Z,9.12
2023-02-24T08:38:15.500Z,9.14
2023-02-24T08:40:55.242Z,9.20
2023-02-24T08:43:34.690Z,9.23
2023-02-24T08:46:19.099Z,9.28
2023-02-24T08:48:56.080Z,9.33
2023-02-24T08:51:35.269Z,9.37
2023-02-24T08:54:15.817Z,9.44
2023-02-24T08:56:56.608Z,9.48
2023-02-24T08:59:38.479Z,9.49
2023-02-24T09:02:24.624Z,9.51
2023-02-24T09:05:01.007Z,9.51
2023-02-24T09:07:37.505Z,9.51
2023-02-24T09:10:18.230Z,9.51
2023-02-24T09:12:54.378Z,9.52
2023-02-24T09:15:41.932Z,9.54
2023-02-24T09:18:16.188Z,9.56
2023-02-24T09:21:16.508Z,9.57
2023-02-24T09:23:50.678Z,9.57
2023-02-24T09:26:24.876Z,9.58
2023-02-24T09:28:59.043Z,9.61
2023-02-24T09:31:55.881Z,9.65
2023-02-24T09:34:30.428Z,9.65
2023-02-24T09:37:04.637Z,9.68
2023-02-24T09:39:52.887Z,9.69
2023-02-24T09:42:35.464Z,9.68
2023-02-24T09:45:19.689Z,9.68
2023-02-24T09:47:58.576Z,9.70
2023-02-24T09:51:02.002Z,9.69
2023-02-24T09:53:49.718Z,9.66
2023-02-24T09:56:37.745Z,9.61
2023-02-24T09:59:26.686Z,9.57
2023-02-24T10:02:20.705Z,9.57
2023-02-24T10:05:07.732Z,9.56
2023-02-24T10:07:44.632Z,9.55
2023-02-24T10:10:28.794Z,9.55
2023-02-24T10:13:16.175Z,9.56
2023-02-24T10:16:06.302Z,9.53
2023-02-24T10:18:48.725Z,9.48
2023-02-24T10:21:48.567Z,9.43
2023-02-24T10:24:31.071Z,9.39
2023-02-24T10:27:16.846Z,9.38
2023-02-24T10:30:05.565Z,9.35
2023-02-24T10:32:48.963Z,9.33
2023-02-24T10:35:26.241Z,9.31
2023-02-24T10:38:05.790Z,9.33
2023-02-24T10:40:56.988Z,9.33
2023-02-24T10:43:35.223Z,9.36
2023-02-24T10:46:18.733Z,9.37
2023-02-24T10:49:02.972Z,9.34
2023-02-24T10:51:41.638Z,9.30
2023-02-24T10:54:34.680Z,9.30
2023-02-24T10:57:16.059Z,9.26
2023-02-24T11:00:15.493Z,9.25
2023-02-24T11:03:10.942Z,9.27
2023-02-24T11:06:07.255Z,9.27
2023-02-24T11:08:55.097Z,9.26
2023-02-24T11:11:56.445Z,9.26
2023-02-24T11:14:43.806Z,9.30
2023-02-24T11:17:27.454Z,9.34
2023-02-24T11:20:11.337Z,9.37
2023-02-24T11:22:49.529Z,9.37
2023-02-24T11:25:26.934Z,9.36
2023-02-24T11:28:01.294Z,9.35
2023-02-24T11:30:43.769Z,9.36
2023-02-24T11:33:29.349Z,9.38
2023-02-24T11:36:13.138Z,9.37
2023-02-24T11:39:02.821Z,9.38
2023-02-24T11:41:45.960Z,9.39
2023-02-24T11:44:28.622Z,9.42
2023-02-24T11:47:07.675Z,9.53
2023-02-24T11:49:46.590Z,9.68
2023-02-24T11:52:27.840Z,9.84
2023-02-24T11:55:05.765Z,9.98
2023-02-24T11:57:46.090Z,10.09
2023-02-24T12:00:23.610Z,10.18
2023-02-24T12:03:04.266Z,10.27
2023-02-24T12:05:41.265Z,10.38
2023-02-24T12:08:25.989Z,10.51
2023-02-24T12:11:06.444Z,10.63
2023-02-24T12:13:47.743Z,10.71
2023-02-24T12:16:25.502Z,10.96
2023-02-24T12:19:07.130Z,11.25
2023-02-24T12:21:46.194Z,11.40
2023-02-24T12:24:21.566Z,11.41
2023-02-24T12:27:06.739Z,11.30
2023-02-24T12:30:06.924Z,11.26
2023-02-24T12:32:56.521Z,11.67
2023-02-24T12:35:41.046Z,11.97
2023-02-24T12:38:33.927Z,11.97
2023-02-24T12:41:26.813Z,12.04
2023-02-24T12:44:09.933Z,11.97
2023-02-24T12:46:45.636Z,11.82
2023-02-24T12:49:38.471Z,11.73
2023-02-24T12:52:22.233Z,11.73
2023-02-24T12:55:02.961Z,11.81
2023-02-24T12:57:47.741Z,11.81
2023-02-24T13:00:30.550Z,11.70
2023-02-24T13:03:21.256Z,11.53
2023-02-24T13:06:05.131Z,11.31
2023-02-24T13:08:50.777Z,11.05
2023-02-24T13:11:37.136Z,10.88
2023-02-24T13:14:20.666Z,10.87
2023-02-24T13:17:05.571Z,10.94
2023-02-24T13:19:40.401Z,11.06
2023-02-24T13:22:32.602Z,11.11
2023-02-24T13:25:23.940Z,11.03
2023-02-24T13:28:03.164Z,10.87
2023-02-24T13:30:47.651Z,10.75
2023-02-24T13:33:31.282Z,10.66
2023-02-24T13:36:20.954Z,10.63
2023-02-24T13:39:07.041Z,10.53
2023-02-24T13:41:42.749Z,10.45
2023-02-24T13:44:28.632Z,10.44
2023-02-24T13:47:31.249Z,10.53
2023-02-24T13:50:22.046Z,10.75
2023-02-24T13:53:10.012Z,10.76
2023-02-24T13:55:58.696Z,10.69
2023-02-24T13:58:52.964Z,10.56
2023-02-24T14:01:30.617Z,10.50
2023-02-24T14:04:16.655Z,10.54
2023-02-24T14:06:54.520Z,10.61
2023-02-24T14:09:31.451Z,10.71
2023-02-24T14:12:09.712Z,10.77
2023-02-24T14:14:44.710Z,10.79
2023-02-24T14:17:29.150Z,10.77
2023-02-24T14:20:20.156Z,10.75
2023-02-24T14:22:56.210Z,10.75
2023-02-24T14:25:32.410Z,10.79
2023-02-24T14:28:06.591Z,10.75
2023-02-24T14:30:43.085Z,10.66
2023-02-24T14:33:29.355Z,10.54
2023-02-24T14:36:04.364Z,10.50
2023-02-24T14:38:40.201Z,10.49
2023-02-24T14:41:22.687Z,10.39
2023-02-24T14:43:56.892Z,10.23
2023-02-24T14:46:32.473Z,10.09
2023-02-24T14:49:06.725Z,9.98
2023-02-24T14:51:40.763Z,9.92
2023-02-24T14:54:24.452Z,9.89
2023-02-24T14:56:59.843Z,9.85
2023-02-24T14:59:40.149Z,9.80
2023-02-24T15:02:20.429Z,9.77
2023-02-24T15:04:58.636Z,9.77
2023-02-24T15:07:36.026Z,9.76
2023-02-24T15:10:21.557Z,9.74
2023-02-24T15:13:00.861Z,9.73
2023-02-24T15:15:40.234Z,9.72
2023-02-24T15:18:24.320Z,9.70
2023-02-24T15:21:06.408Z,9.65
2023-02-24T15:23:41.416Z,9.61
2023-02-24T15:26:30.005Z,9.58
2023-02-24T15:29:03.442Z,9.53
2023-02-24T15:31:38.123Z,9.47
2023-02-24T15:34:23.661Z,9.41
2023-02-24T15:37:01.707Z,9.34
2023-02-24T15:39:37.356Z,9.30
2023-02-24T15:42:22.772Z,9.28
2023-02-24T15:44:59.011Z,9.26
2023-02-24T15:47:44.520Z,9.25
2023-02-24T15:50:19.879Z,9.24
2023-02-24T15:52:54.295Z,9.22
2023-02-24T15:55:30.669Z,9.21
2023-02-24T15:58:07.172Z,9.22
2023-02-24T16:00:41.564Z,9.22
2023-02-24T16:03:17.449Z,9.18
2023-02-24T16:05:52.710Z,9.15
2023-02-24T16:08:26.919Z,9.14
2023-02-24T16:11:02.485Z,9.11
2023-02-24T16:13:37.245Z,9.02
2023-02-24T16:16:15.179Z,8.91
2023-02-24T16:18:50.035Z,8.79
2023-02-24T16:21:24.628Z,8.67
2023-02-24T16:23:59.384Z,8.55
2023-02-24T16:26:38.043Z,8.47
2023-02-24T16:29:22.178Z,8.45
2023-02-24T16:31:59.177Z,8.39
2023-02-24T16:34:33.701Z,8.34
2023-02-24T16:37:19.748Z,8.28
2023-02-24T16:39:54.279Z,8.26
2023-02-24T16:42:29.129Z,8.27
2023-02-24T16:45:03.792Z,8.24
2023-02-24T16:47:39.649Z,8.21
2023-02-24T16:50:24.729Z,8.16
2023-02-24T16:52:59.207Z,8.15
2023-02-24T16:55:34.947Z,8.14
2023-02-24T16:58:10.225Z,8.07
2023-02-24T17:00:46.203Z,7.99
2023-02-24T17:03:25.341Z,7.93
2023-02-24T17:05:59.846Z,7.89
2023-02-24T17:08:35.322Z,7.86
2023-02-24T17:11:13.769Z,7.83
2023-02-24T17:13:49.737Z,7.79
2023-02-24T17:16:25.416Z,7.74
2023-02-24T17:19:00.433Z,7.66
2023-02-24T17:21:35.078Z,7.61
2023-02-24T17:24:15.706Z,7.58
2023-02-24T17:26:50.456Z,7.50
2023-02-24T17:29:29.378Z,7.41
2023-02-24T17:32:04.343Z,7.32
2023-02-24T17:34:39.475Z,7.26
2023-02-24T17:37:14.316Z,7.20
2023-02-24T17:39:52.422Z,7.17
2023-02-24T17:42:34.186Z,7.14
2023-02-24T17:45:10.596Z,7.10
2023-02-24T17:47:45.788Z,7.11
2023-02-24T17:50:22.066Z,7.15
2023-02-24T17:52:58.435Z,7.14
2023-02-24T17:55:34.153Z,7.13
2023-02-24T17:58:10.796Z,7.13
2023-02-24T18:00:47.655Z,7.11
2023-02-24T18:03:39.822Z,7.11
2023-02-24T18:06:15.223Z,7.11
2023-02-24T18:08:50.943Z,7.08
2023-02-24T18:11:26.757Z,7.04
2023-02-24T18:14:03.302Z,7.03
2023-02-24T18:16:39.649Z,7.01
2023-02-24T18:19:15.539Z,7.01
2023-02-24T18:21:50.533Z,7.01
2023-02-24T18:24:25.312Z,7.01
2023-02-24T18:27:00.913Z,7.03
2023-02-24T18:29:37.493Z,7.03
2023-02-24T18:32:14.670Z,7.01
2023-02-24T18:34:51.952Z,7.03
2023-02-24T18:37:28.847Z,7.04
2023-02-24T18:40:10.582Z,7.04
2023-02-24T18:42:50.840Z,7.03
2023-02-24T18:45:26.816Z,7.00
2023-02-24T18:48:19.003Z,6.97
2023-02-24T18:50:57.714Z,6.93
2023-02-24T18:53:37.819Z,6.91
2023-02-24T18:56:19.000Z,6.88
2023-02-24T18:58:57.362Z,6.82
2023-02-24T19:01:41.553Z,6.78
2023-02-24T19:04:20.066Z,6.76
2023-02-24T19:06:55.778Z,6.72
2023-02-24T19:09:35.906Z,6.71
2023-02-24T19:12:12.225Z,6.69
2023-02-24T19:14:49.030Z,6.63
2023-02-24T19:17:26.224Z,6.55
2023-02-24T19:20:06.079Z,6.46
2023-02-24T19:22:47.744Z,6.37
2023-02-24T19:25:25.907Z,6.28
2023-02-24T19:28:02.907Z,6.17
2023-02-24T19:30:42.642Z,6.08
2023-02-24T19:33:19.027Z,5.99
2023-02-24T19:35:55.017Z,5.91
2023-02-24T19:38:32.005Z,5.84
2023-02-24T19:41:08.986Z,5.78
2023-02-24T19:43:47.054Z,5.72
2023-02-24T19:46:25.440Z,5.68
2023-02-24T19:49:02.432Z,5.66
2023-02-24T19:51:40.396Z,5.68
2023-02-24T19:54:17.390Z,5.66
2023-02-24T19:56:57.775Z,5.68
2023-02-24T19:59:34.502Z,5.71
2023-02-24T20:02:30.425Z,5.72
2023-02-24T20:05:08.363Z,5.70
2023-02-24T20:07:44.755Z,5.67
2023-02-24T20:10:25.626Z,5.62
2023-02-24T20:13:01.946Z,5.54
2023-02-24T20:15:43.907Z,5.48
2023-02-24T20:18:23.463Z,5.40
2023-02-24T20:21:04.833Z,5.35
2023-02-24T20:23:42.956Z,5.30
2023-02-24T20:26:20.512Z,5.27
2023-02-24T20:29:01.948Z,5.24
2023-02-24T20:31:39.251Z,5.21
2023-02-24T20:34:32.529Z,5.19
2023-02-24T20:37:10.269Z,5.21
2023-02-24T20:39:49.583Z,5.25
2023-02-24T20:42:27.626Z,5.31
2023-02-24T20:45:04.160Z,5.36
2023-02-24T20:47:41.756Z,5.40
2023-02-24T20:50:37.864Z,5.43
2023-02-24T20:53:14.965Z,5.45
2023-02-24T20:55:51.401Z,5.48
2023-02-24T20:58:28.329Z,5.51
2023-02-24T21:01:03.935Z,5.53
2023-02-24T21:03:38.764Z,5.55
2023-02-24T21:06:18.854Z,5.59
2023-02-24T21:08:55.705Z,5.61
2023-02-24T21:11:32.290Z,5.63
2023-02-24T21:14:07.877Z,5.66
2023-02-24T21:16:43.048Z,5.71
2023-02-24T21:19:20.567Z,5.77
2023-02-24T21:21:55.416Z,5.81
2023-02-24T21:24:30.793Z,5.87
2023-02-24T21:27:05.753Z,5.91
2023-02-24T21:29:39.902Z,5.93
2023-02-24T21:32:18.370Z,5.94
2023-02-24T21:34:50.628Z,5.94
2023-02-24T21:37:25.059Z,5.92
2023-02-24T21:40:00.230Z,5.93
2023-02-24T21:42:34.443Z,5.95
2023-02-24T21:45:10.700Z,5.99
2023-02-24T21:47:44.759Z,6.00
2023-02-24T21:50:19.639Z,5.99
2023-02-24T21:52:56.292Z,5.99
2023-02-24T21:55:29.922Z,5.97
2023-02-24T21:58:04.457Z,5.96
2023-02-24T22:00:39.725Z,5.98
2023-02-24T22:03:17.137Z,6.01
2023-02-24T22:05:54.288Z,6.03
2023-02-24T22:08:28.474Z,6.05
2023-02-24T22:11:03.600Z,6.05
2023-02-24T22:13:37.939Z,6.05
2023-02-24T22:16:14.260Z,6.06
2023-02-24T22:18:48.303Z,6.09
2023-02-24T22:21:23.627Z,6.11
2023-02-24T22:23:58.590Z,6.13
2023-02-24T22:26:33.492Z,6.15
2023-02-24T22:29:07.795Z,6.18
2023-02-24T22:31:44.218Z,6.17
2023-02-24T22:34:17.895Z,6.14
2023-02-24T22:36:51.653Z,6.10
2023-02-24T22:39:25.085Z,6.08
2023-02-24T22:41:58.990Z,6.06
2023-02-24T22:44:32.219Z,6.05
2023-02-24T22:47:06.934Z,6.07
2023-02-24T22:49:40.931Z,6.06
2023-02-24T22:52:17.308Z,6.05
2023-02-24T22:54:53.123Z,6.04
2023-02-24T22:57:27.424Z,6.05
2023-02-24T23:00:01.521Z,6.06
2023-02-24T23:02:35.404Z,6.06
2023-02-24T23:05:10.050Z,6.05
2023-02-24T23:07:44.539Z,6.05
2023-02-24T23:10:18.784Z,6.06
2023-02-24T23:12:53.300Z,6.08
2023-02-24T23:15:27.326Z,6.12
2023-02-24T23:18:02.869Z,6.13
2023-02-24T23:20:36.585Z,6.12
2023-02-24T23:23:10.900Z,6.11
2023-02-24T23:25:51.577Z,6.13
2023-02-24T23:28:26.337Z,6.14
2023-02-24T23:31:00.291Z,6.15
2023-02-24T23:33:34.702Z,6.17
2023-02-24T23:36:10.306Z,6.16
2023-02-24T23:38:43.824Z,6.13
2023-02-24T23:41:17.872Z,6.07
2023-02-24T23:43:51.226Z,6.04
2023-02-24T23:46:25.225Z,6.02
2023-02-24T23:48:59.894Z,6.03
2023-02-24T23:51:47.579Z,6.04
2023-02-24T23:54:22.404Z,6.03
2023-02-24T23:56:57.216Z,6.02
2023-02-24T23:59:31.001Z,5.99
